createdAt,value
2023-05-03T00:02:10.988Z,4.78
2023-05-03T00:04:38.692Z,5.35
2023-05-03T00:07:05.603Z,4.57
2023-05-03T00:09:35.599Z,4.15
2023-05-03T00:12:02.955Z,3.85
2023-05-03T00:14:30.389Z,4.70
2023-05-03T00:16:58.101Z,4.25
2023-05-03T00:19:31.740Z,4.55
2023-05-03T00:21:59.742Z,4.18
2023-05-03T00:24:27.591Z,4.60
2023-05-03T00:26:54.697Z,5.43
2023-05-03T00:29:23.054Z,4.78
2023-05-03T00:31:50.169Z,4.93
2023-05-03T00:34:17.209Z,4.43
2023-05-03T00:36:44.181Z,4.63
2023-05-03T00:39:11.647Z,5.50
2023-05-03T00:41:39.834Z,4.45
2023-05-03T00:44:06.982Z,3.72
2023-05-03T00:46:35.306Z,4.60
2023-05-03T00:49:02.514Z,5.25
2023-05-03T00:51:29.527Z,4.15
2023-05-03T00:53:56.979Z,4.45
2023-05-03T00:56:24.209Z,4.38
2023-05-03T00:58:54.747Z,4.60
2023-05-03T01:01:22.265Z,4.82
2023-05-03T01:03:50.706Z,4.85
2023-05-03T01:06:17.827Z,4.82
2023-05-03T01:08:55.631Z,4.75
2023-05-03T01:11:48.315Z,5.85
2023-05-03T01:14:28.882Z,3.88
2023-05-03T01:17:06.190Z,4.28
2023-05-03T01:19:44.429Z,21.80
2023-05-03T01:22:12.206Z,22.35
2023-05-03T01:24:42.573Z,13.88
2023-05-03T01:27:09.594Z,23.65
2023-05-03T01:29:36.540Z,13.50
2023-05-03T01:32:09.353Z,14.57
2023-05-03T01:34:49.248Z,7.35
2023-05-03T01:37:17.521Z,5.45
2023-05-03T01:40:01.734Z,7.18
2023-05-03T01:42:30.826Z,5.90
2023-05-03T01:44:58.935Z,5.15
2023-05-03T01:47:27.963Z,5.22
2023-05-03T01:49:54.888Z,6.00
2023-05-03T01:52:21.905Z,9.57
2023-05-03T01:54:48.843Z,12.07
2023-05-03T01:57:15.987Z,21.05
2023-05-03T01:59:42.926Z,11.32
2023-05-03T02:02:09.913Z,9.32
2023-05-03T02:04:36.963Z,11.02
2023-05-03T02:07:04.048Z,6.85
2023-05-03T02:09:31.000Z,9.98
2023-05-03T02:11:57.903Z,10.02
2023-05-03T02:14:24.967Z,7.00
2023-05-03T02:16:52.092Z,6.75
2023-05-03T02:19:19.230Z,6.03
2023-05-03T02:21:46.124Z,5.90
2023-05-03T02:24:13.486Z,4.72
2023-05-03T02:26:40.830Z,6.68
2023-05-03T02:29:10.097Z,11.07
2023-05-03T02:31:37.234Z,6.00
2023-05-03T02:34:05.161Z,7.00
2023-05-03T02:36:32.263Z,7.80
2023-05-03T02:39:01.452Z,11.38
2023-05-03T02:41:28.851Z,6.30
2023-05-03T02:43:56.558Z,8.02
2023-05-03T02:46:26.530Z,11.63
2023-05-03T02:48:53.866Z,4.53
2023-05-03T02:51:21.103Z,4.93
2023-05-03T02:53:48.309Z,5.05
2023-05-03T02:56:15.247Z,4.93
2023-05-03T02:58:42.252Z,5.78
2023-05-03T03:01:10.963Z,4.63
2023-05-03T03:03:38.098Z,4.30
2023-05-03T03:06:05.476Z,4.45
2023-05-03T03:08:36.534Z,4.05
2023-05-03T03:11:05.636Z,5.68
2023-05-03T03:13:33.505Z,5.80
2023-05-03T03:16:02.053Z,4.45
2023-05-03T03:18:29.345Z,4.70
2023-05-03T03:20:56.260Z,4.60
2023-05-03T03:23:23.419Z,5.40
2023-05-03T03:25:51.253Z,4.05
2023-05-03T03:28:19.171Z,3.58
2023-05-03T03:30:46.981Z,4.38
2023-05-03T03:33:24.438Z,4.95
2023-05-03T03:35:54.572Z,4.50
2023-05-03T03:38:25.966Z,4.45
2023-05-03T03:40:59.125Z,4.75
2023-05-03T03:43:26.484Z,4.13
2023-05-03T03:45:54.228Z,4.15
2023-05-03T03:48:23.472Z,4.35
2023-05-03T03:50:51.252Z,5.25
2023-05-03T03:53:20.882Z,4.85
2023-05-03T03:55:48.516Z,4.80
2023-05-03T03:58:17.555Z,4.88
2023-05-03T04:00:45.418Z,4.38
2023-05-03T04:03:17.015Z,4.72
2023-05-03T04:05:44.010Z,5.53
2023-05-03T04:08:11.033Z,4.30
2023-05-03T04:10:39.801Z,4.30
2023-05-03T04:13:07.153Z,4.43
2023-05-03T04:15:34.596Z,4.22
2023-05-03T04:18:03.843Z,4.60
2023-05-03T04:20:31.894Z,3.70
2023-05-03T04:23:01.460Z,4.53
2023-05-03T04:25:33.424Z,4.68
2023-05-03T04:28:06.979Z,4.80
2023-05-03T04:30:36.269Z,5.00
2023-05-03T04:33:04.353Z,4.40
2023-05-03T04:35:34.303Z,4.65
2023-05-03T04:38:06.095Z,5.40
2023-05-03T04:40:34.388Z,5.07
2023-05-03T04:43:06.335Z,4.97
2023-05-03T04:45:38.100Z,5.07
2023-05-03T04:48:07.139Z,5.07
2023-05-03T04:50:34.422Z,4.65
2023-05-03T04:53:02.225Z,5.20
2023-05-03T04:55:31.012Z,6.03
2023-05-03T04:57:59.363Z,5.20
2023-05-03T05:00:26.356Z,4.85
2023-05-03T05:02:59.378Z,4.93
2023-05-03T05:05:29.304Z,8.77
2023-05-03T05:07:58.443Z,4.82
2023-05-03T05:10:28.627Z,5.30
2023-05-03T05:12:56.753Z,5.78
2023-05-03T05:15:24.147Z,5.35
2023-05-03T05:17:51.683Z,5.53
2023-05-03T05:20:20.345Z,6.72
2023-05-03T05:22:49.887Z,5.45
2023-05-03T05:25:16.989Z,5.80
2023-05-03T05:27:44.266Z,5.30
2023-05-03T05:30:11.468Z,6.15
2023-05-03T05:32:41.024Z,5.72
2023-05-03T05:35:11.119Z,5.50
2023-05-03T05:37:38.643Z,5.45
2023-05-03T05:40:07.945Z,5.38
2023-05-03T05:45:10.523Z,4.80
2023-05-03T05:47:38.787Z,4.82
2023-05-03T05:50:15.281Z,4.82
2023-05-03T05:52:46.923Z,6.22
2023-05-03T05:55:16.031Z,6.07
2023-05-03T05:57:44.950Z,4.95
2023-05-03T06:00:17.559Z,5.20
2023-05-03T06:02:45.850Z,4.70
2023-05-03T06:05:16.968Z,4.88
2023-05-03T06:07:44.206Z,5.88
2023-05-03T06:10:11.536Z,5.47
2023-05-03T06:12:41.032Z,5.22
2023-05-03T06:15:14.107Z,5.00
2023-05-03T06:17:41.461Z,4.82
2023-05-03T06:20:14.571Z,4.53
2023-05-03T06:22:42.522Z,5.03
2023-05-03T06:25:14.086Z,4.28
2023-05-03T06:27:44.132Z,6.68
2023-05-03T06:30:12.410Z,4.60
2023-05-03T06:32:42.335Z,4.72
2023-05-03T06:35:10.266Z,5.18
2023-05-03T06:37:39.182Z,5.50
2023-05-03T06:40:07.968Z,4.80
2023-05-03T06:42:36.991Z,4.70
2023-05-03T06:45:14.059Z,4.60
2023-05-03T06:47:42.913Z,4.63
2023-05-03T06:50:14.050Z,4.35
2023-05-03T06:52:41.432Z,4.10
2023-05-03T06:55:09.531Z,4.00
2023-05-03T06:57:36.500Z,5.03
2023-05-03T07:00:07.491Z,5.63
2023-05-03T07:02:34.955Z,5.22
2023-05-03T07:05:02.141Z,5.28
2023-05-03T07:07:29.160Z,4.85
2023-05-03T07:09:56.120Z,4.85
2023-05-03T07:12:27.756Z,4.68
2023-05-03T07:14:55.719Z,4.57
2023-05-03T07:17:23.330Z,4.38
2023-05-03T07:19:51.599Z,4.50
2023-05-03T07:22:21.382Z,5.03
2023-05-03T07:24:48.449Z,4.28
2023-05-03T07:27:15.686Z,3.88
2023-05-03T07:29:42.635Z,4.00
2023-05-03T07:32:09.574Z,4.05
2023-05-03T07:34:36.558Z,4.03
2023-05-03T07:37:04.184Z,3.75
2023-05-03T07:39:31.250Z,3.95
2023-05-03T07:41:58.214Z,4.60
2023-05-03T07:44:25.324Z,4.00
2023-05-03T07:46:52.420Z,3.90
2023-05-03T07:49:19.382Z,4.00
2023-05-03T07:51:46.350Z,4.20
2023-05-03T07:54:13.372Z,4.20
2023-05-03T07:56:40.346Z,4.72
2023-05-03T07:59:10.308Z,3.72
2023-05-03T08:01:38.133Z,4.20
2023-05-03T08:04:05.729Z,4.82
2023-05-03T08:06:33.552Z,4.63
2023-05-03T08:09:00.953Z,4.25
2023-05-03T08:11:29.345Z,5.00
2023-05-03T08:13:56.891Z,4.10
2023-05-03T08:16:23.986Z,4.43
2023-05-03T08:18:51.774Z,3.80
2023-05-03T08:21:19.259Z,3.75
2023-05-03T08:23:46.523Z,3.95
2023-05-03T08:26:14.777Z,3.78
2023-05-03T08:28:42.245Z,3.60
2023-05-03T08:31:09.775Z,4.78
2023-05-03T08:33:37.178Z,5.40
2023-05-03T08:36:04.488Z,5.10
2023-05-03T08:38:31.600Z,5.32
2023-05-03T08:40:59.839Z,4.80
2023-05-03T08:43:28.827Z,5.32
2023-05-03T08:45:56.275Z,5.43
2023-05-03T08:48:23.828Z,5.57
2023-05-03T08:50:52.237Z,5.95
2023-05-03T08:53:19.470Z,5.57
2023-05-03T08:55:46.413Z,5.90
2023-05-03T08:58:13.751Z,5.85
2023-05-03T09:00:45.495Z,5.10
2023-05-03T09:03:13.277Z,5.63
2023-05-03T09:05:44.335Z,4.50
2023-05-03T09:08:17.266Z,5.15
2023-05-03T09:10:44.545Z,4.75
2023-05-03T09:13:12.222Z,4.80
2023-05-03T09:15:39.301Z,4.45
2023-05-03T09:18:16.207Z,4.22
2023-05-03T09:20:51.805Z,5.22
2023-05-03T09:23:28.816Z,5.45
2023-05-03T09:25:56.154Z,5.80
2023-05-03T09:28:23.802Z,4.65
2023-05-03T09:31:03.988Z,4.25
2023-05-03T09:33:30.948Z,3.58
2023-05-03T09:36:03.490Z,3.45
2023-05-03T09:38:36.946Z,3.53
2023-05-03T09:41:06.881Z,3.95
2023-05-03T09:43:36.017Z,4.10
2023-05-03T09:46:10.845Z,4.35
2023-05-03T09:48:39.451Z,3.22
2023-05-03T09:51:07.235Z,3.30
2023-05-03T09:53:37.924Z,3.42
2023-05-03T09:56:09.076Z,2.70
2023-05-03T09:58:36.540Z,2.40
2023-05-03T10:01:03.591Z,2.38
2023-05-03T10:03:41.545Z,2.33
2023-05-03T10:06:23.288Z,2.28
2023-05-03T10:08:55.035Z,2.47
2023-05-03T10:11:26.907Z,2.10
2023-05-03T10:13:55.924Z,1.50
2023-05-03T10:16:50.758Z,2.47
2023-05-03T10:19:28.075Z,2.20
2023-05-03T10:22:07.940Z,2.65
2023-05-03T10:25:03.410Z,3.45
2023-05-03T10:27:51.951Z,2.38
2023-05-03T10:30:32.727Z,2.95
2023-05-03T10:33:00.679Z,3.85
2023-05-03T10:35:29.728Z,2.83
2023-05-03T10:37:57.222Z,2.42
2023-05-03T10:40:24.736Z,3.08
2023-05-03T10:42:56.535Z,2.38
2023-05-03T10:45:28.834Z,3.10
2023-05-03T10:48:25.824Z,2.63
2023-05-03T10:50:53.133Z,2.55
2023-05-03T10:53:41.328Z,3.22
2023-05-03T10:56:13.742Z,2.58
2023-05-03T10:58:45.497Z,2.70
2023-05-03T11:01:20.258Z,2.63
2023-05-03T11:04:08.509Z,2.33
2023-05-03T11:06:46.134Z,3.13
2023-05-03T11:09:15.055Z,2.40
2023-05-03T11:11:42.621Z,2.10
2023-05-03T11:14:10.434Z,2.30
2023-05-03T11:16:40.771Z,2.10
2023-05-03T11:19:08.123Z,2.60
2023-05-03T11:21:35.170Z,1.58
2023-05-03T11:24:02.555Z,1.77
2023-05-03T11:26:35.208Z,2.63
2023-05-03T11:29:02.168Z,3.00
2023-05-03T11:31:29.258Z,1.52
2023-05-03T11:33:56.696Z,2.20
2023-05-03T11:36:23.595Z,1.48
2023-05-03T11:38:50.588Z,1.83
2023-05-03T11:41:18.247Z,1.85
2023-05-03T11:43:47.641Z,1.95
2023-05-03T11:46:22.204Z,2.72
2023-05-03T11:48:49.352Z,1.65
2023-05-03T11:51:22.507Z,1.90
2023-05-03T11:53:49.967Z,1.60
2023-05-03T11:56:20.417Z,1.92
2023-05-03T11:58:58.808Z,2.08
2023-05-03T12:01:28.426Z,2.00
2023-05-03T12:04:02.654Z,1.88
2023-05-03T12:06:34.207Z,3.22
2023-05-03T12:09:04.380Z,2.33
2023-05-03T12:11:44.809Z,2.45
2023-05-03T12:14:12.768Z,3.10
2023-05-03T12:16:50.835Z,1.80
2023-05-03T12:19:33.459Z,1.75
2023-05-03T12:22:18.079Z,2.00
2023-05-03T12:24:49.788Z,1.85
2023-05-03T12:27:19.272Z,2.03
2023-05-03T12:29:47.634Z,2.40
2023-05-03T12:32:15.214Z,2.22
2023-05-03T12:34:42.997Z,1.95
2023-05-03T12:37:16.763Z,2.08
2023-05-03T12:39:46.402Z,3.83
2023-05-03T12:42:20.648Z,2.43
2023-05-03T12:44:50.594Z,2.00
2023-05-03T12:47:28.039Z,2.40
2023-05-03T12:49:59.691Z,1.70
2023-05-03T12:54:56.927Z,2.13
2023-05-03T12:57:24.626Z,2.33
2023-05-03T13:00:02.181Z,1.70
2023-05-03T13:05:01.161Z,2.30
2023-05-03T13:07:31.150Z,2.47
2023-05-03T13:12:33.551Z,2.45
2023-05-03T13:15:02.900Z,2.70
2023-05-03T13:17:31.711Z,3.00
2023-05-03T13:19:58.609Z,2.35
2023-05-03T13:22:25.695Z,2.72
2023-05-03T13:24:52.544Z,2.42
2023-05-03T13:27:19.517Z,2.78
2023-05-03T13:29:49.172Z,2.35
2023-05-03T13:32:17.055Z,2.20
2023-05-03T13:34:44.667Z,2.90
2023-05-03T13:37:12.165Z,2.58
2023-05-03T13:39:39.093Z,2.90
2023-05-03T13:42:06.281Z,2.20
2023-05-03T13:44:33.339Z,2.35
2023-05-03T13:47:00.295Z,2.50
2023-05-03T13:49:27.289Z,3.20
2023-05-03T13:51:54.645Z,2.08
2023-05-03T13:54:21.583Z,2.72
2023-05-03T13:56:48.628Z,2.42
2023-05-03T13:59:16.556Z,2.60
2023-05-03T14:01:43.825Z,2.38
2023-05-03T14:04:11.042Z,3.95
2023-05-03T14:06:40.798Z,2.45
2023-05-03T14:09:08.979Z,3.45
2023-05-03T14:11:36.224Z,2.38
2023-05-03T14:14:03.776Z,2.00
2023-05-03T14:16:41.057Z,2.88
2023-05-03T14:19:12.596Z,2.47
2023-05-03T14:21:43.235Z,2.67
2023-05-03T14:24:10.615Z,2.13
2023-05-03T14:26:38.034Z,2.35
2023-05-03T14:29:06.025Z,2.60
2023-05-03T14:31:34.390Z,2.25
2023-05-03T14:34:01.500Z,2.25
2023-05-03T14:36:36.506Z,2.42
2023-05-03T14:39:04.368Z,2.20
2023-05-03T14:41:33.548Z,2.65
2023-05-03T14:44:01.129Z,2.00
2023-05-03T14:46:28.305Z,2.85
2023-05-03T14:48:55.763Z,2.63
2023-05-03T14:51:22.813Z,1.42
2023-05-03T14:53:49.776Z,1.90
2023-05-03T14:56:16.742Z,1.80
2023-05-03T14:58:43.768Z,1.65
2023-05-03T15:01:18.414Z,1.90
2023-05-03T15:03:45.753Z,2.63
2023-05-03T15:06:12.710Z,2.28
2023-05-03T15:08:39.941Z,2.28
2023-05-03T15:11:08.004Z,2.17
2023-05-03T15:13:35.372Z,2.08
2023-05-03T15:16:02.417Z,2.80
2023-05-03T15:18:29.538Z,2.28
2023-05-03T15:20:56.837Z,1.92
2023-05-03T15:23:23.857Z,2.20
2023-05-03T15:25:51.269Z,3.10
2023-05-03T15:28:18.180Z,2.00
2023-05-03T15:30:45.064Z,2.58
2023-05-03T15:33:12.374Z,2.15
2023-05-03T15:35:40.833Z,2.15
2023-05-03T15:38:08.636Z,1.70
2023-05-03T15:40:36.044Z,1.95
2023-05-03T15:43:03.074Z,2.75
2023-05-03T15:45:30.117Z,2.00
2023-05-03T15:47:57.175Z,2.63
2023-05-03T15:50:24.230Z,2.40
2023-05-03T15:52:51.217Z,2.28
2023-05-03T15:55:19.324Z,2.00
2023-05-03T15:57:46.648Z,1.85
2023-05-03T16:00:18.058Z,1.70
2023-05-03T16:02:45.016Z,1.95
2023-05-03T16:05:12.040Z,1.33
2023-05-03T16:07:39.139Z,1.38
2023-05-03T16:10:07.881Z,1.70
2023-05-03T16:12:35.561Z,1.48
2023-05-03T16:15:02.999Z,1.67
2023-05-03T16:17:29.981Z,1.80
2023-05-03T16:19:57.219Z,2.17
2023-05-03T16:22:24.131Z,1.70
2023-05-03T16:24:51.372Z,1.50
2023-05-03T16:27:18.395Z,2.03
2023-05-03T16:29:45.308Z,1.67
2023-05-03T16:32:12.447Z,1.75
2023-05-03T16:34:39.502Z,2.35
2023-05-03T16:37:06.498Z,1.65
2023-05-03T16:39:33.397Z,1.90
2023-05-03T16:42:01.184Z,1.42
2023-05-03T16:44:28.291Z,1.90
2023-05-03T16:46:55.289Z,2.00
2023-05-03T16:49:22.432Z,1.88
2023-05-03T16:51:49.454Z,2.00
2023-05-03T16:54:17.095Z,3.05
2023-05-03T16:56:44.572Z,3.50
2023-05-03T16:59:12.036Z,1.60
2023-05-03T17:01:39.074Z,1.85
2023-05-03T17:04:06.740Z,2.42
2023-05-03T17:06:33.765Z,1.80
2023-05-03T17:09:01.033Z,2.00
2023-05-03T17:11:28.233Z,1.55
2023-05-03T17:13:55.198Z,1.80
2023-05-03T17:16:22.921Z,2.38
2023-05-03T17:18:50.824Z,1.70
2023-05-03T17:21:19.242Z,1.83
2023-05-03T17:23:47.118Z,1.55
2023-05-03T17:26:14.580Z,1.50
2023-05-03T17:28:41.790Z,1.35
2023-05-03T17:31:08.853Z,3.30
2023-05-03T17:33:36.351Z,1.90
2023-05-03T17:36:07.121Z,2.12
2023-05-03T17:38:34.892Z,2.28
2023-05-03T17:41:09.224Z,2.13
2023-05-03T17:43:37.329Z,2.05
2023-05-03T17:46:12.152Z,2.17
2023-05-03T17:48:43.498Z,2.60
2023-05-03T17:51:12.711Z,2.05
2023-05-03T17:53:40.982Z,2.75
2023-05-03T17:56:18.965Z,2.88
2023-05-03T17:58:47.346Z,2.03
2023-05-03T18:01:16.131Z,2.42
2023-05-03T18:03:43.383Z,2.10
2023-05-03T18:06:12.382Z,2.17
2023-05-03T18:08:39.525Z,2.22
2023-05-03T18:11:06.480Z,1.95
2023-05-03T18:13:33.534Z,1.92
2023-05-03T18:16:01.076Z,2.05
2023-05-03T18:18:28.127Z,3.25
2023-05-03T18:21:03.819Z,1.83
2023-05-03T18:23:32.075Z,2.35
2023-05-03T18:26:00.011Z,2.20
2023-05-03T18:28:27.695Z,1.80
2023-05-03T18:30:57.776Z,2.35
2023-05-03T18:33:24.779Z,2.33
2023-05-03T18:35:52.998Z,1.98
2023-05-03T18:38:21.748Z,2.45
2023-05-03T18:40:49.685Z,2.22
2023-05-03T18:43:17.101Z,2.55
2023-05-03T18:45:44.598Z,2.17
2023-05-03T18:48:12.090Z,1.85
2023-05-03T18:50:39.584Z,2.17
2023-05-03T18:53:07.014Z,2.20
2023-05-03T18:55:33.936Z,2.45
2023-05-03T18:58:01.550Z,2.08
2023-05-03T19:00:28.623Z,2.00
2023-05-03T19:02:55.649Z,2.28
2023-05-03T19:05:22.957Z,2.65
2023-05-03T19:07:50.118Z,2.35
2023-05-03T19:10:18.254Z,2.70
2023-05-03T19:12:45.417Z,2.33
2023-05-03T19:15:12.529Z,2.28
2023-05-03T19:17:42.458Z,2.05
2023-05-03T19:20:12.827Z,2.42
2023-05-03T19:22:39.855Z,2.45
2023-05-03T19:25:07.358Z,2.17
2023-05-03T19:27:34.425Z,1.95
2023-05-03T19:30:01.742Z,1.95
2023-05-03T19:32:29.493Z,2.13
2023-05-03T19:34:56.643Z,2.05
2023-05-03T19:37:23.712Z,2.13
2023-05-03T19:39:50.842Z,2.45
2023-05-03T19:42:17.907Z,2.03
2023-05-03T19:44:44.976Z,2.25
2023-05-03T19:47:11.884Z,2.22
2023-05-03T19:49:39.350Z,2.50
2023-05-03T19:52:06.324Z,1.80
2023-05-03T19:54:33.494Z,2.13
2023-05-03T19:57:07.669Z,2.55
2023-05-03T19:59:35.024Z,1.77
2023-05-03T20:02:02.154Z,2.50
2023-05-03T20:04:29.197Z,2.25
2023-05-03T20:06:57.378Z,2.47
2023-05-03T20:09:24.657Z,2.72
2023-05-03T20:11:56.713Z,2.67
2023-05-03T20:14:23.759Z,2.40
2023-05-03T20:16:50.786Z,2.80
2023-05-03T20:19:17.825Z,2.22
2023-05-03T20:21:44.877Z,2.30
2023-05-03T20:24:11.812Z,2.40
2023-05-03T20:26:38.915Z,2.45
2023-05-03T20:29:06.133Z,2.33
2023-05-03T20:31:34.092Z,2.90
2023-05-03T20:34:01.504Z,2.38
2023-05-03T20:36:28.518Z,2.22
2023-05-03T20:38:56.600Z,2.42
2023-05-03T20:41:24.149Z,2.88
2023-05-03T20:43:55.142Z,2.05
2023-05-03T20:46:22.163Z,2.67
2023-05-03T20:48:50.067Z,2.03
2023-05-03T20:51:17.426Z,2.13
2023-05-03T20:53:44.733Z,2.75
2023-05-03T20:56:12.628Z,2.20
2023-05-03T20:58:39.602Z,3.10
2023-05-03T21:01:08.124Z,2.58
2023-05-03T21:03:35.686Z,2.63
2023-05-03T21:06:02.948Z,2.50
2023-05-03T21:08:29.996Z,2.92
2023-05-03T21:10:57.096Z,2.67
2023-05-03T21:13:48.523Z,2.60
2023-05-03T21:16:18.022Z,2.40
2023-05-03T21:18:45.077Z,2.53
2023-05-03T21:21:12.253Z,3.08
2023-05-03T21:23:39.508Z,3.78
2023-05-03T21:26:06.547Z,3.25
2023-05-03T21:28:33.792Z,3.15
2023-05-03T21:31:00.938Z,2.58
2023-05-03T21:33:28.030Z,3.50
2023-05-03T21:35:58.738Z,2.85
2023-05-03T21:38:25.878Z,2.53
2023-05-03T21:40:53.969Z,2.72
2023-05-03T21:43:21.473Z,2.78
2023-05-03T21:45:49.036Z,4.18
2023-05-03T21:48:16.140Z,2.80
2023-05-03T21:50:43.712Z,3.75
2023-05-03T21:53:10.602Z,3.05
2023-05-03T21:55:38.614Z,3.00
2023-05-03T21:58:05.601Z,2.97
2023-05-03T22:00:33.019Z,2.60
2023-05-03T22:03:00.296Z,2.40
2023-05-03T22:05:27.693Z,2.60
2023-05-03T22:07:54.807Z,2.50
2023-05-03T22:10:21.858Z,2.80
2023-05-03T22:12:49.047Z,2.70
2023-05-03T22:15:18.673Z,2.25
2023-05-03T22:17:46.102Z,2.22
2023-05-03T22:20:13.237Z,2.83
2023-05-03T22:22:40.171Z,3.38
2023-05-03T22:25:07.507Z,1.90
2023-05-03T22:27:34.428Z,2.38
2023-05-03T22:30:01.584Z,2.53
2023-05-03T22:32:28.890Z,2.38
2023-05-03T22:34:58.669Z,2.40
2023-05-03T22:37:25.625Z,2.97
2023-05-03T22:39:52.684Z,3.15
2023-05-03T22:42:21.544Z,3.55
2023-05-03T22:44:48.528Z,2.58
2023-05-03T22:47:15.842Z,2.20
2023-05-03T22:49:43.732Z,9.95
2023-05-03T22:52:10.832Z,2.42
2023-05-03T22:54:37.917Z,11.88
2023-05-03T22:57:04.972Z,8.93
2023-05-03T22:59:32.075Z,31.75
2023-05-03T23:01:59.209Z,11.18
2023-05-03T23:04:26.317Z,11.68
2023-05-03T23:06:54.202Z,17.10
2023-05-03T23:09:21.561Z,4.53
2023-05-03T23:11:48.864Z,3.53
2023-05-03T23:14:16.170Z,2.80
2023-05-03T23:16:43.099Z,71.35
2023-05-03T23:19:10.839Z,100.30
2023-05-03T23:21:37.918Z,27.98
2023-05-03T23:24:05.339Z,17.45
2023-05-03T23:26:32.248Z,31.38
2023-05-03T23:28:59.849Z,24.33
2023-05-03T23:31:31.610Z,33.83
2023-05-03T23:34:00.272Z,27.40
2023-05-03T23:36:27.922Z,11.38
2023-05-03T23:38:54.852Z,9.75
2023-05-03T23:41:21.965Z,5.22
2023-05-03T23:43:48.965Z,10.20
2023-05-03T23:46:16.034Z,26.67
2023-05-03T23:48:43.224Z,87.30
2023-05-03T23:51:10.214Z,69.03
2023-05-03T23:53:37.838Z,108.75
2023-05-03T23:56:04.935Z,29.40
2023-05-03T23:58:31.989Z,59.13
